createdAt,value
2023-01-25T00:02:20.928Z,57.44
2023-01-25T00:04:47.247Z,56.37
2023-01-25T00:07:13.711Z,56.31
2023-01-25T00:09:39.979Z,56.44
2023-01-25T00:12:06.294Z,58.47
2023-01-25T00:14:32.583Z,58.05
2023-01-25T00:16:58.806Z,59.72
2023-01-25T00:19:25.118Z,59.48
2023-01-25T00:21:51.417Z,59.48
2023-01-25T00:24:17.725Z,60.62
2023-01-25T00:26:44.185Z,60.45
2023-01-25T00:29:10.529Z,59.65
2023-01-25T00:31:36.839Z,59.59
2023-01-25T00:34:03.220Z,59.85
2023-01-25T00:36:29.513Z,59.04
2023-01-25T00:38:55.784Z,58.43
2023-01-25T00:41:22.079Z,59.05
2023-01-25T00:43:48.906Z,59.33
2023-01-25T00:46:15.240Z,59.46
2023-01-25T00:48:41.523Z,59.07
2023-01-25T00:51:07.823Z,57.97
2023-01-25T00:53:34.193Z,58.16
2023-01-25T00:56:00.524Z,60.13
2023-01-25T00:58:26.852Z,62.40
2023-01-25T01:00:53.383Z,62.36
2023-01-25T01:03:19.707Z,62.35
2023-01-25T01:05:46.022Z,62.23
2023-01-25T01:08:12.283Z,61.19
2023-01-25T01:10:38.610Z,60.85
2023-01-25T01:13:04.903Z,61.23
2023-01-25T01:15:31.151Z,60.24
2023-01-25T01:17:57.417Z,60.15
2023-01-25T01:20:23.734Z,60.58
2023-01-25T01:22:49.964Z,60.97
2023-01-25T01:25:16.257Z,60.12
2023-01-25T01:27:42.597Z,59.40
2023-01-25T01:30:08.877Z,58.79
2023-01-25T01:32:35.242Z,57.35
2023-01-25T01:35:02.259Z,57.34
2023-01-25T01:37:28.527Z,57.51
2023-01-25T01:39:54.746Z,57.01
2023-01-25T01:42:21.141Z,57.42
2023-01-25T01:44:47.494Z,56.58
2023-01-25T01:47:13.724Z,56.87
2023-01-25T01:49:40.044Z,55.71
2023-01-25T01:52:06.354Z,55.76
2023-01-25T01:54:32.613Z,55.67
2023-01-25T01:56:58.893Z,55.75
2023-01-25T01:59:25.205Z,55.66
2023-01-25T02:01:51.437Z,54.62
2023-01-25T02:04:17.727Z,53.84
2023-01-25T02:06:45.153Z,53.60
2023-01-25T02:09:11.632Z,53.79
2023-01-25T02:11:37.959Z,52.95
2023-01-25T02:14:04.261Z,53.27
2023-01-25T02:16:30.497Z,53.08
2023-01-25T02:18:56.846Z,53.29
2023-01-25T02:21:23.108Z,52.54
2023-01-25T02:23:49.395Z,50.93
2023-01-25T02:26:15.754Z,51.05
2023-01-25T02:28:42.035Z,51.49
2023-01-25T02:31:08.412Z,51.48
2023-01-25T02:33:34.817Z,51.36
2023-01-25T02:36:01.154Z,51.73
2023-01-25T02:38:27.395Z,51.27
2023-01-25T02:40:53.706Z,50.83
2023-01-25T02:43:20.019Z,52.41
2023-01-25T02:45:46.322Z,51.73
2023-01-25T02:48:12.638Z,51.45
2023-01-25T02:50:38.973Z,57.06
2023-01-25T02:53:05.198Z,59.10
2023-01-25T02:55:31.475Z,62.31
2023-01-25T02:57:57.785Z,63.96
2023-01-25T03:00:24.065Z,62.99
2023-01-25T03:02:50.374Z,62.98
2023-01-25T03:05:16.660Z,61.37
2023-01-25T03:07:42.943Z,60.73
2023-01-25T03:10:09.324Z,59.79
2023-01-25T03:12:35.649Z,58.81
2023-01-25T03:15:01.920Z,57.77
2023-01-25T03:17:29.762Z,56.70
2023-01-25T03:19:56.040Z,56.73
2023-01-25T03:22:22.319Z,55.95
2023-01-25T03:24:48.787Z,57.16
2023-01-25T03:27:15.063Z,57.13
2023-01-25T03:29:41.301Z,57.21
2023-01-25T03:32:07.710Z,57.41
2023-01-25T03:34:34.096Z,57.23
2023-01-25T03:37:00.370Z,57.22
2023-01-25T03:39:26.708Z,56.76
2023-01-25T03:41:53.013Z,56.07
2023-01-25T03:44:19.317Z,56.30
2023-01-25T03:46:45.683Z,55.28
2023-01-25T03:49:12.020Z,54.98
2023-01-25T03:51:38.350Z,54.13
2023-01-25T03:54:04.637Z,54.16
2023-01-25T03:56:30.951Z,54.22
2023-01-25T03:58:57.265Z,53.90
2023-01-25T04:01:23.582Z,53.80
2023-01-25T04:03:49.938Z,54.35
2023-01-25T04:06:16.208Z,54.03
2023-01-25T04:08:42.627Z,53.97
2023-01-25T04:11:08.910Z,54.02
2023-01-25T04:13:35.799Z,56.46
2023-01-25T04:16:02.151Z,57.49
2023-01-25T04:18:28.409Z,60.08
2023-01-25T04:20:54.694Z,60.22
2023-01-25T04:23:22.301Z,59.55
2023-01-25T04:25:48.582Z,60.85
2023-01-25T04:28:14.854Z,61.18
2023-01-25T04:30:41.097Z,62.78
2023-01-25T04:33:07.379Z,62.82
2023-01-25T04:35:33.654Z,62.21
2023-01-25T04:37:59.972Z,61.72
2023-01-25T04:40:26.247Z,61.16
2023-01-25T04:42:52.521Z,60.62
2023-01-25T04:45:18.982Z,61.33
2023-01-25T04:47:45.415Z,61.21
2023-01-25T04:50:11.652Z,60.84
2023-01-25T04:52:38.031Z,60.47
2023-01-25T04:55:04.306Z,59.89
2023-01-25T04:57:30.559Z,59.95
2023-01-25T04:59:56.923Z,59.93
2023-01-25T05:02:23.223Z,59.97
2023-01-25T05:04:49.554Z,59.40
2023-01-25T05:07:16.012Z,58.51
2023-01-25T05:09:42.325Z,57.85
2023-01-25T05:12:08.608Z,56.58
2023-01-25T05:14:34.921Z,56.27
2023-01-25T05:17:01.289Z,56.08
2023-01-25T05:19:27.954Z,55.93
2023-01-25T05:21:54.310Z,56.07
2023-01-25T05:24:20.697Z,55.46
2023-01-25T05:26:46.968Z,54.09
2023-01-25T05:29:13.327Z,54.42
2023-01-25T05:31:39.715Z,55.20
2023-01-25T05:34:06.055Z,58.00
2023-01-25T05:36:32.371Z,57.41
2023-01-25T05:38:58.675Z,57.91
2023-01-25T05:41:24.907Z,57.71
2023-01-25T05:43:51.395Z,58.71
2023-01-25T05:46:17.784Z,58.54
2023-01-25T05:48:44.068Z,58.80
2023-01-25T05:51:10.351Z,59.97
2023-01-25T05:53:36.717Z,59.22
2023-01-25T05:56:03.077Z,58.92
2023-01-25T05:58:29.339Z,59.19
2023-01-25T06:00:55.700Z,58.53
2023-01-25T06:03:22.169Z,57.80
2023-01-25T06:05:48.740Z,58.66
2023-01-25T06:08:15.060Z,58.42
2023-01-25T06:10:41.387Z,58.75
2023-01-25T06:13:07.640Z,58.20
2023-01-25T06:15:33.987Z,58.12
2023-01-25T06:18:00.247Z,57.25
2023-01-25T06:20:26.555Z,56.54
2023-01-25T06:22:53.307Z,55.97
2023-01-25T06:25:19.858Z,55.25
2023-01-25T06:27:46.109Z,55.09
2023-01-25T06:30:12.423Z,54.92
2023-01-25T06:32:38.706Z,54.45
2023-01-25T06:35:04.975Z,54.03
2023-01-25T06:37:31.291Z,53.48
2023-01-25T06:39:57.603Z,53.18
2023-01-25T06:42:23.852Z,52.86
2023-01-25T06:44:50.289Z,52.16
2023-01-25T06:47:16.552Z,52.72
2023-01-25T06:49:42.807Z,53.15
2023-01-25T06:52:09.106Z,52.80
2023-01-25T06:54:35.434Z,54.28
2023-01-25T06:57:01.671Z,55.29
2023-01-25T06:59:27.977Z,55.78
2023-01-25T07:01:54.316Z,56.80
2023-01-25T07:04:20.598Z,57.26
2023-01-25T07:06:46.913Z,56.69
2023-01-25T07:09:13.190Z,57.01
2023-01-25T07:11:39.474Z,56.46
2023-01-25T07:14:05.762Z,56.24
2023-01-25T07:16:32.035Z,55.70
2023-01-25T07:18:58.324Z,55.52
2023-01-25T07:21:24.582Z,55.64
2023-01-25T07:23:51.038Z,55.62
2023-01-25T07:26:17.421Z,55.55
2023-01-25T07:28:43.665Z,54.86
2023-01-25T07:31:10.003Z,54.34
2023-01-25T07:33:36.398Z,55.02
2023-01-25T07:36:02.675Z,54.48
2023-01-25T07:38:29.071Z,53.84
2023-01-25T07:40:55.389Z,53.46
2023-01-25T07:43:21.659Z,54.17
2023-01-25T07:45:47.993Z,53.93
2023-01-25T07:48:14.276Z,53.96
2023-01-25T07:50:40.588Z,53.61
2023-01-25T07:53:06.837Z,53.72
2023-01-25T07:55:33.234Z,53.56
2023-01-25T07:57:59.574Z,53.14
2023-01-25T08:00:25.829Z,53.54
2023-01-25T08:02:52.109Z,53.79
2023-01-25T08:05:18.362Z,53.27
2023-01-25T08:07:44.648Z,53.32
2023-01-25T08:10:11.018Z,53.15
2023-01-25T08:12:37.291Z,53.03
2023-01-25T08:15:03.573Z,53.38
2023-01-25T08:17:29.883Z,53.12
2023-01-25T08:19:56.157Z,52.21
2023-01-25T08:22:22.409Z,52.54
2023-01-25T08:24:48.657Z,52.89
2023-01-25T08:27:14.922Z,53.02
2023-01-25T08:29:41.187Z,53.30
2023-01-25T08:32:07.494Z,55.23
2023-01-25T08:34:33.745Z,55.00
2023-01-25T08:36:59.985Z,54.76
2023-01-25T08:39:26.214Z,54.34
2023-01-25T08:41:52.505Z,54.43
2023-01-25T08:44:18.788Z,55.24
2023-01-25T08:46:45.228Z,55.93
2023-01-25T08:49:11.506Z,56.67
2023-01-25T08:51:37.782Z,56.50
2023-01-25T08:54:04.081Z,55.61
2023-01-25T08:56:30.427Z,55.24
2023-01-25T08:58:56.678Z,54.95
2023-01-25T09:01:22.973Z,55.00
2023-01-25T09:03:50.467Z,54.65
2023-01-25T09:06:17.139Z,54.42
2023-01-25T09:08:43.745Z,54.77
2023-01-25T09:11:10.092Z,54.44
2023-01-25T09:13:37.684Z,53.93
2023-01-25T09:16:04.177Z,53.52
2023-01-25T09:18:30.611Z,53.03
2023-01-25T09:20:56.920Z,53.40
2023-01-25T09:23:23.239Z,53.74
2023-01-25T09:25:49.557Z,54.66
2023-01-25T09:28:15.839Z,54.34
2023-01-25T09:30:48.482Z,54.18
2023-01-25T09:33:17.943Z,53.58
2023-01-25T09:35:44.609Z,54.79
2023-01-25T09:38:11.279Z,54.83
2023-01-25T09:40:37.617Z,55.23
2023-01-25T09:43:03.921Z,55.58
2023-01-25T09:45:30.160Z,55.13
2023-01-25T09:47:56.445Z,54.49
2023-01-25T09:50:22.700Z,54.02
2023-01-25T09:52:48.982Z,54.23
2023-01-25T09:55:15.282Z,53.99
2023-01-25T09:57:41.540Z,53.29
2023-01-25T10:00:08.612Z,53.33
2023-01-25T10:02:35.089Z,53.61
2023-01-25T10:05:01.376Z,53.27
2023-01-25T10:07:27.603Z,53.09
2023-01-25T10:09:53.886Z,54.14
2023-01-25T10:12:20.149Z,52.53
2023-01-25T10:14:46.458Z,52.69
2023-01-25T10:17:12.737Z,52.79
2023-01-25T10:19:38.970Z,52.62
2023-01-25T10:22:05.303Z,51.90
2023-01-25T10:24:31.596Z,52.81
2023-01-25T10:26:57.885Z,52.90
2023-01-25T10:29:24.240Z,53.11
2023-01-25T10:31:50.672Z,53.24
2023-01-25T10:34:17.170Z,53.17
2023-01-25T10:36:43.471Z,53.03
2023-01-25T10:39:09.728Z,52.69
2023-01-25T10:41:35.990Z,53.35
2023-01-25T10:44:02.232Z,53.30
2023-01-25T10:46:28.529Z,52.19
2023-01-25T10:48:54.821Z,53.09
2023-01-25T10:51:21.145Z,53.29
2023-01-25T10:53:47.429Z,53.11
2023-01-25T10:56:13.691Z,53.73
2023-01-25T10:58:39.974Z,53.76
2023-01-25T11:01:06.242Z,53.45
2023-01-25T11:03:32.466Z,53.89
2023-01-25T11:05:59.039Z,54.40
2023-01-25T11:08:25.279Z,53.69
2023-01-25T11:10:51.538Z,53.08
2023-01-25T11:13:17.875Z,53.67
2023-01-25T11:15:44.178Z,53.46
2023-01-25T11:18:10.461Z,54.03
2023-01-25T11:20:36.810Z,53.57
2023-01-25T11:23:03.090Z,53.65
2023-01-25T11:25:29.337Z,53.56
2023-01-25T11:27:55.644Z,53.01
2023-01-25T11:30:21.946Z,52.72
2023-01-25T11:32:48.180Z,52.61
2023-01-25T11:35:14.484Z,52.11
2023-01-25T11:37:40.847Z,52.25
2023-01-25T11:40:07.486Z,50.82
2023-01-25T11:42:34.024Z,50.98
2023-01-25T11:45:00.338Z,50.77
2023-01-25T11:47:26.639Z,50.22
2023-01-25T11:49:52.952Z,49.17
2023-01-25T11:52:19.641Z,49.01
2023-01-25T11:54:45.912Z,48.95
2023-01-25T11:57:12.159Z,49.24
2023-01-25T11:59:38.457Z,49.56
2023-01-25T12:02:04.780Z,49.23
2023-01-25T12:04:31.138Z,49.48
2023-01-25T12:06:57.401Z,46.72
2023-01-25T12:09:23.642Z,46.58
2023-01-25T12:11:49.973Z,46.95
2023-01-25T12:14:16.307Z,46.76
2023-01-25T12:16:42.590Z,48.27
2023-01-25T12:19:08.836Z,50.07
2023-01-25T12:21:35.113Z,51.20
2023-01-25T12:24:01.580Z,51.54
2023-01-25T12:26:27.949Z,50.82
2023-01-25T12:28:54.224Z,50.03
2023-01-25T12:31:20.653Z,51.06
2023-01-25T12:33:46.974Z,50.42
2023-01-25T12:36:13.221Z,50.12
2023-01-25T12:38:40.112Z,50.48
2023-01-25T12:41:06.549Z,50.69
2023-01-25T12:43:32.896Z,49.44
2023-01-25T12:45:59.445Z,49.27
2023-01-25T12:48:27.222Z,49.54
2023-01-25T12:50:53.521Z,49.97
2023-01-25T12:53:19.749Z,49.87
2023-01-25T12:55:46.034Z,49.74
2023-01-25T12:58:12.310Z,49.88
2023-01-25T13:00:38.658Z,50.31
2023-01-25T13:03:04.943Z,50.72
2023-01-25T13:05:31.215Z,50.78
2023-01-25T13:07:57.634Z,50.59
2023-01-25T13:10:23.888Z,50.21
2023-01-25T13:12:50.173Z,50.05
2023-01-25T13:15:16.418Z,49.91
2023-01-25T13:17:42.690Z,50.28
2023-01-25T13:20:09.259Z,50.70
2023-01-25T13:22:35.701Z,50.51
2023-01-25T13:25:02.051Z,50.21
2023-01-25T13:27:28.369Z,51.33
2023-01-25T13:29:54.679Z,52.91
2023-01-25T13:32:21.720Z,52.79
2023-01-25T13:34:48.080Z,53.58
2023-01-25T13:37:14.326Z,54.04
2023-01-25T13:39:40.572Z,53.89
2023-01-25T13:42:06.911Z,53.85
2023-01-25T13:44:33.152Z,54.11
2023-01-25T13:46:59.439Z,54.58
2023-01-25T13:49:25.740Z,54.86
2023-01-25T13:51:52.061Z,54.84
2023-01-25T13:54:18.386Z,54.65
2023-01-25T13:56:44.679Z,55.11
2023-01-25T13:59:10.919Z,55.21
2023-01-25T14:01:37.248Z,55.80
2023-01-25T14:04:03.687Z,55.73
2023-01-25T14:06:29.977Z,55.65
2023-01-25T14:08:56.305Z,57.37
2023-01-25T14:11:22.608Z,59.05
2023-01-25T14:13:49.258Z,59.03
2023-01-25T14:16:15.931Z,58.43
2023-01-25T14:18:42.207Z,58.46
2023-01-25T14:21:08.455Z,58.53
2023-01-25T14:23:34.753Z,58.16
2023-01-25T14:26:01.078Z,58.47
2023-01-25T14:28:27.353Z,57.83
2023-01-25T14:30:53.620Z,58.04
2023-01-25T14:33:19.991Z,57.97
2023-01-25T14:36:11.644Z,57.92
2023-01-25T14:38:32.586Z,58.11
2023-01-25T14:40:58.858Z,57.99
2023-01-25T14:43:25.094Z,57.90
2023-01-25T14:45:51.367Z,57.19
2023-01-25T14:48:17.619Z,57.56
2023-01-25T14:50:43.927Z,57.75
2023-01-25T14:53:10.230Z,57.68
2023-01-25T14:55:36.545Z,57.89
2023-01-25T14:58:02.798Z,57.84
2023-01-25T15:00:29.112Z,57.82
2023-01-25T15:02:55.425Z,57.94
2023-01-25T15:05:21.842Z,58.43
2023-01-25T15:07:48.121Z,58.67
2023-01-25T15:10:14.392Z,58.18
2023-01-25T15:12:40.625Z,58.36
2023-01-25T15:15:06.904Z,59.24
2023-01-25T15:17:35.611Z,59.21
2023-01-25T15:20:01.894Z,59.70
2023-01-25T15:22:28.156Z,60.08
2023-01-25T15:24:58.407Z,60.11
2023-01-25T15:27:24.981Z,60.13
2023-01-25T15:29:51.237Z,60.74
2023-01-25T15:32:17.556Z,60.97
2023-01-25T15:34:43.836Z,61.40
2023-01-25T15:37:10.108Z,61.23
2023-01-25T15:39:36.467Z,61.16
2023-01-25T15:42:02.892Z,60.94
2023-01-25T15:44:29.121Z,60.56
2023-01-25T15:46:55.361Z,61.06
2023-01-25T15:49:21.657Z,60.78
2023-01-25T15:51:47.946Z,60.95
2023-01-25T15:54:14.206Z,61.26
2023-01-25T15:56:40.532Z,62.17
2023-01-25T15:59:06.874Z,61.94
2023-01-25T16:01:33.156Z,63.79
2023-01-25T16:03:59.436Z,64.09
2023-01-25T16:06:25.746Z,63.36
2023-01-25T16:08:52.024Z,63.61
2023-01-25T16:11:18.275Z,64.80
2023-01-25T16:13:44.580Z,64.71
2023-01-25T16:16:10.880Z,64.34
2023-01-25T16:18:37.131Z,64.40
2023-01-25T16:21:03.380Z,65.95
2023-01-25T16:23:29.680Z,66.93
2023-01-25T16:25:55.969Z,65.83
2023-01-25T16:28:22.215Z,65.79
2023-01-25T16:30:48.642Z,65.72
2023-01-25T16:33:15.158Z,66.59
2023-01-25T16:35:41.398Z,68.35
2023-01-25T16:38:07.723Z,68.88
2023-01-25T16:40:34.746Z,67.82
2023-01-25T16:43:00.975Z,66.84
2023-01-25T16:45:27.326Z,67.33
2023-01-25T16:47:53.606Z,68.24
2023-01-25T16:50:19.888Z,66.88
2023-01-25T16:52:46.202Z,66.15
2023-01-25T16:55:12.443Z,66.99
2023-01-25T16:57:38.703Z,65.63
2023-01-25T17:00:04.962Z,68.00
2023-01-25T17:02:33.386Z,72.17
2023-01-25T17:04:59.781Z,72.87
2023-01-25T17:07:26.024Z,74.48
2023-01-25T17:09:52.316Z,74.73
2023-01-25T17:12:18.599Z,74.65
2023-01-25T17:14:44.837Z,73.83
2023-01-25T17:17:11.181Z,72.74
2023-01-25T17:19:37.456Z,72.18
2023-01-25T17:22:03.718Z,70.38
2023-01-25T17:24:30.052Z,68.72
2023-01-25T17:26:56.359Z,67.99
2023-01-25T17:29:22.637Z,67.87
2023-01-25T17:31:48.996Z,67.84
2023-01-25T17:34:15.340Z,69.27
2023-01-25T17:36:41.650Z,68.14
2023-01-25T17:39:07.926Z,68.68
2023-01-25T17:41:34.187Z,70.93
2023-01-25T17:44:00.496Z,72.35
2023-01-25T17:46:26.807Z,72.69
2023-01-25T17:48:53.063Z,73.29
2023-01-25T17:51:19.389Z,72.99
2023-01-25T17:53:45.699Z,71.46
2023-01-25T17:56:11.964Z,69.64
2023-01-25T17:58:38.295Z,68.88
2023-01-25T18:01:13.604Z,68.34
2023-01-25T18:03:40.552Z,68.71
2023-01-25T18:06:06.834Z,67.95
2023-01-25T18:08:33.074Z,67.57
2023-01-25T18:10:59.329Z,67.48
2023-01-25T18:13:25.568Z,67.52
2023-01-25T18:15:51.840Z,73.28
2023-01-25T18:18:18.138Z,71.07
2023-01-25T18:20:44.435Z,71.62
2023-01-25T18:23:10.667Z,71.37
2023-01-25T18:25:36.984Z,70.02
2023-01-25T18:28:03.236Z,69.17
2023-01-25T18:30:29.478Z,68.40
2023-01-25T18:32:55.784Z,67.97
2023-01-25T18:35:22.046Z,67.63
2023-01-25T18:37:48.285Z,67.51
2023-01-25T18:40:14.604Z,72.34
2023-01-25T18:42:40.897Z,73.93
2023-01-25T18:45:07.155Z,75.82
2023-01-25T18:47:33.422Z,72.45
2023-01-25T18:49:59.663Z,70.67
2023-01-25T18:52:25.907Z,70.10
2023-01-25T18:54:52.168Z,70.28
2023-01-25T18:57:18.467Z,69.63
2023-01-25T18:59:44.743Z,68.80
2023-01-25T19:02:11.013Z,68.44
2023-01-25T19:04:37.279Z,70.06
2023-01-25T19:07:03.539Z,68.74
2023-01-25T19:09:30.236Z,68.38
2023-01-25T19:11:56.489Z,68.66
2023-01-25T19:14:22.757Z,68.77
2023-01-25T19:16:49.026Z,70.06
2023-01-25T19:19:15.338Z,71.51
2023-01-25T19:21:41.736Z,73.02
2023-01-25T19:24:08.023Z,72.02
2023-01-25T19:26:34.344Z,71.00
2023-01-25T19:29:00.651Z,70.88
2023-01-25T19:31:26.961Z,70.26
2023-01-25T19:33:53.253Z,69.86
2023-01-25T19:36:19.503Z,74.80
2023-01-25T19:38:45.763Z,74.23
2023-01-25T19:41:12.056Z,73.47
2023-01-25T19:43:38.352Z,75.41
2023-01-25T19:46:04.616Z,74.51
2023-01-25T19:48:32.972Z,73.78
2023-01-25T19:50:59.223Z,72.84
2023-01-25T19:53:25.473Z,73.38
2023-01-25T19:55:51.717Z,73.46
2023-01-25T19:58:18.114Z,73.89
2023-01-25T20:00:44.375Z,72.17
2023-01-25T20:03:16.216Z,71.73
2023-01-25T20:05:43.101Z,71.80
2023-01-25T20:08:09.368Z,70.62
2023-01-25T20:10:35.611Z,70.11
2023-01-25T20:13:01.855Z,69.91
2023-01-25T20:15:28.091Z,69.83
2023-01-25T20:17:54.435Z,70.20
2023-01-25T20:20:20.726Z,69.31
2023-01-25T20:22:46.996Z,68.80
2023-01-25T20:25:13.231Z,69.13
2023-01-25T20:27:40.459Z,70.18
2023-01-25T20:30:06.793Z,70.09
2023-01-25T20:32:33.581Z,69.88
2023-01-25T20:34:59.927Z,69.76
2023-01-25T20:37:26.180Z,69.28
2023-01-25T20:39:52.421Z,69.03
2023-01-25T20:42:18.751Z,69.44
2023-01-25T20:44:45.004Z,70.21
2023-01-25T20:47:11.243Z,71.21
2023-01-25T20:49:37.583Z,71.29
2023-01-25T20:52:03.942Z,70.40
2023-01-25T20:54:30.213Z,70.77
2023-01-25T20:56:56.532Z,73.23
2023-01-25T20:59:22.838Z,72.47
2023-01-25T21:01:49.098Z,71.31
2023-01-25T21:04:15.384Z,71.24
2023-01-25T21:06:41.666Z,74.04
2023-01-25T21:09:07.919Z,74.59
2023-01-25T21:11:34.214Z,72.99
2023-01-25T21:14:00.500Z,71.81
2023-01-25T21:16:26.846Z,71.71
2023-01-25T21:18:55.739Z,71.42
2023-01-25T21:21:22.036Z,70.71
2023-01-25T21:23:48.344Z,72.90
2023-01-25T21:26:14.618Z,71.54
2023-01-25T21:28:40.913Z,69.53
2023-01-25T21:31:07.280Z,70.17
2023-01-25T21:33:33.611Z,69.92
2023-01-25T21:35:59.867Z,69.76
2023-01-25T21:38:26.124Z,69.22
2023-01-25T21:40:52.351Z,68.24
2023-01-25T21:43:18.651Z,67.88
2023-01-25T21:45:45.051Z,67.80
2023-01-25T21:48:11.400Z,68.57
2023-01-25T21:50:37.714Z,68.42
2023-01-25T21:53:04.001Z,67.51
2023-01-25T21:55:30.277Z,67.27
2023-01-25T21:57:56.568Z,69.23
2023-01-25T22:00:23.033Z,73.56
2023-01-25T22:02:49.353Z,73.22
2023-01-25T22:05:15.719Z,75.90
2023-01-25T22:07:42.007Z,76.23
2023-01-25T22:10:08.399Z,72.71
2023-01-25T22:12:34.870Z,71.89
2023-01-25T22:15:01.126Z,70.24
2023-01-25T22:17:27.380Z,71.26
2023-01-25T22:19:53.636Z,74.58
2023-01-25T22:22:19.881Z,74.91
2023-01-25T22:24:46.140Z,74.17
2023-01-25T22:27:12.384Z,73.31
2023-01-25T22:29:38.691Z,73.27
2023-01-25T22:32:04.989Z,71.28
2023-01-25T22:34:31.231Z,70.24
2023-01-25T22:36:57.532Z,71.53
2023-01-25T22:39:23.830Z,71.52
2023-01-25T22:41:50.084Z,70.94
2023-01-25T22:44:16.317Z,70.08
2023-01-25T22:46:42.592Z,70.32
2023-01-25T22:49:08.826Z,70.63
2023-01-25T22:51:35.066Z,72.82
2023-01-25T22:54:01.376Z,72.50
2023-01-25T22:56:27.676Z,72.28
2023-01-25T22:58:53.935Z,72.84
2023-01-25T23:01:20.221Z,74.59
2023-01-25T23:03:46.467Z,75.31
2023-01-25T23:06:12.721Z,75.05
2023-01-25T23:08:38.975Z,75.52
2023-01-25T23:11:05.244Z,75.39
2023-01-25T23:13:31.497Z,75.15
2023-01-25T23:15:57.757Z,73.03
2023-01-25T23:18:24.023Z,73.34
2023-01-25T23:20:50.285Z,73.45
2023-01-25T23:23:16.584Z,73.27
2023-01-25T23:25:42.985Z,73.55
2023-01-25T23:28:09.219Z,75.50
2023-01-25T23:30:35.489Z,76.71
2023-01-25T23:33:01.753Z,76.85
2023-01-25T23:35:28.008Z,75.92
2023-01-25T23:37:54.325Z,74.47
2023-01-25T23:40:20.607Z,75.04
2023-01-25T23:42:46.866Z,73.75
2023-01-25T23:45:13.189Z,73.10
2023-01-25T23:47:39.499Z,72.62
2023-01-25T23:50:05.757Z,74.56
2023-01-25T23:52:32.055Z,76.29
2023-01-25T23:54:58.391Z,77.08
2023-01-25T23:57:24.648Z,76.21
2023-01-25T23:59:50.888Z,80.89
